<?xml version="1.0" encoding="UTF-8" standalone="no" ?>
<gpx xmlns="http://www.topografix.com/GPX/1/1" xmlns:xsi="http://www.w3.org/2001/XMLSchema-instance" xsi:schemaLocation="http://www.topografix.com/GPX/1/1 http://www.topografix.com/GPX/1/1/gpx.xsd" version="1.1" creator="VisuGPX - https://www.visugpx.com">
  <metadata>
    <name>83-V-Villecroze</name>
    <desc><![CDATA[83-V-Villecroze : domaine St Jean - pont naturel]]></desc>
  </metadata>
  <trk>
    <name><![CDATA[Villecroze-st JeanThuery--Pont naturel]]></name>
    <trkseg>
      <trkpt lat="43.56567" lon="6.29387">
        <ele>283.25</ele>
        <time>2018-05-23T11:59:34Z</time>
      </trkpt>
      <trkpt lat="43.56573" lon="6.29387">
        <ele>286.13</ele>
        <time>2018-05-23T11:59:39Z</time>
      </trkpt>
      <trkpt lat="43.56573" lon="6.29386">
        <ele>288.05</ele>
        <time>2018-05-23T11:59:41Z</time>
      </trkpt>
      <trkpt lat="43.56572" lon="6.29385">
        <ele>292.38</ele>
        <time>2018-05-23T11:59:45Z</time>
      </trkpt>
      <trkpt lat="43.56573" lon="6.29385">
        <ele>292.38</ele>
        <time>2018-05-23T11:59:46Z</time>
      </trkpt>
      <trkpt lat="43.56575" lon="6.29387">
        <ele>296.22</ele>
        <time>2018-05-23T11:59:52Z</time>
      </trkpt>
      <trkpt lat="43.56576" lon="6.29387">
        <ele>296.22</ele>
        <time>2018-05-23T11:59:53Z</time>
      </trkpt>
      <trkpt lat="43.56577" lon="6.29387">
        <ele>297.67</ele>
        <time>2018-05-23T11:59:56Z</time>
      </trkpt>
      <trkpt lat="43.56581" lon="6.2939">
        <ele>299.59</ele>
        <time>2018-05-23T12:00:02Z</time>
      </trkpt>
      <trkpt lat="43.56585" lon="6.29391">
        <ele>302.95</ele>
        <time>2018-05-23T12:00:18Z</time>
      </trkpt>
      <trkpt lat="43.5658" lon="6.29383">
        <ele>305.84</ele>
        <time>2018-05-23T12:00:30Z</time>
      </trkpt>
      <trkpt lat="43.56576" lon="6.29393">
        <ele>309.2</ele>
        <time>2018-05-23T12:00:39Z</time>
      </trkpt>
      <trkpt lat="43.56578" lon="6.29408">
        <ele>312.09</ele>
        <time>2018-05-23T12:00:52Z</time>
      </trkpt>
      <trkpt lat="43.56581" lon="6.29418">
        <ele>314.01</ele>
        <time>2018-05-23T12:01:01Z</time>
      </trkpt>
      <trkpt lat="43.56569" lon="6.29433">
        <ele>314.97</ele>
        <time>2018-05-23T12:01:15Z</time>
      </trkpt>
      <trkpt lat="43.56564" lon="6.29452">
        <ele>314.97</ele>
        <time>2018-05-23T12:01:30Z</time>
      </trkpt>
      <trkpt lat="43.56561" lon="6.29458">
        <ele>314.97</ele>
        <time>2018-05-23T12:01:45Z</time>
      </trkpt>
      <trkpt lat="43.56558" lon="6.29465">
        <ele>315.45</ele>
        <time>2018-05-23T12:01:52Z</time>
      </trkpt>
      <trkpt lat="43.56552" lon="6.2948">
        <ele>315.93</ele>
        <time>2018-05-23T12:02:04Z</time>
      </trkpt>
      <trkpt lat="43.56551" lon="6.29482">
        <ele>315.45</ele>
        <time>2018-05-23T12:02:06Z</time>
      </trkpt>
      <trkpt lat="43.5654" lon="6.29503">
        <ele>316.41</ele>
        <time>2018-05-23T12:02:23Z</time>
      </trkpt>
      <trkpt lat="43.56527" lon="6.29513">
        <ele>316.89</ele>
        <time>2018-05-23T12:02:37Z</time>
      </trkpt>
      <trkpt lat="43.56517" lon="6.2952">
        <ele>316.89</ele>
        <time>2018-05-23T12:02:53Z</time>
      </trkpt>
      <trkpt lat="43.56516" lon="6.2952">
        <ele>317.37</ele>
        <time>2018-05-23T12:02:54Z</time>
      </trkpt>
      <trkpt lat="43.56511" lon="6.29533">
        <ele>317.85</ele>
        <time>2018-05-23T12:03:06Z</time>
      </trkpt>
      <trkpt lat="43.56505" lon="6.29548">
        <ele>318.33</ele>
        <time>2018-05-23T12:03:21Z</time>
      </trkpt>
      <trkpt lat="43.565" lon="6.29553">
        <ele>318.81</ele>
        <time>2018-05-23T12:03:43Z</time>
      </trkpt>
      <trkpt lat="43.56498" lon="6.29555">
        <ele>318.81</ele>
        <time>2018-05-23T12:04:05Z</time>
      </trkpt>
      <trkpt lat="43.56496" lon="6.29555">
        <ele>318.81</ele>
        <time>2018-05-23T12:04:33Z</time>
      </trkpt>
      <trkpt lat="43.56497" lon="6.29551">
        <ele>318.81</ele>
        <time>2018-05-23T12:04:59Z</time>
      </trkpt>
      <trkpt lat="43.565" lon="6.29549">
        <ele>319.78</ele>
        <time>2018-05-23T12:05:27Z</time>
      </trkpt>
      <trkpt lat="43.565" lon="6.2955">
        <ele>319.78</ele>
        <time>2018-05-23T12:05:55Z</time>
      </trkpt>
      <trkpt lat="43.56498" lon="6.29551">
        <ele>319.3</ele>
        <time>2018-05-23T12:06:25Z</time>
      </trkpt>
      <trkpt lat="43.56497" lon="6.2955">
        <ele>319.78</ele>
        <time>2018-05-23T12:06:44Z</time>
      </trkpt>
      <trkpt lat="43.56499" lon="6.2955">
        <ele>320.26</ele>
        <time>2018-05-23T12:07:13Z</time>
      </trkpt>
      <trkpt lat="43.56498" lon="6.29547">
        <ele>320.26</ele>
        <time>2018-05-23T12:07:41Z</time>
      </trkpt>
      <trkpt lat="43.565" lon="6.29549">
        <ele>320.26</ele>
        <time>2018-05-23T12:08:14Z</time>
      </trkpt>
      <trkpt lat="43.56502" lon="6.29551">
        <ele>320.74</ele>
        <time>2018-05-23T12:08:39Z</time>
      </trkpt>
      <trkpt lat="43.56499" lon="6.29554">
        <ele>320.74</ele>
        <time>2018-05-23T12:09:13Z</time>
      </trkpt>
      <trkpt lat="43.56498" lon="6.29553">
        <ele>321.22</ele>
        <time>2018-05-23T12:09:41Z</time>
      </trkpt>
      <trkpt lat="43.565" lon="6.2955">
        <ele>321.22</ele>
        <time>2018-05-23T12:10:13Z</time>
      </trkpt>
      <trkpt lat="43.56503" lon="6.29554">
        <ele>321.22</ele>
        <time>2018-05-23T12:10:40Z</time>
      </trkpt>
      <trkpt lat="43.56505" lon="6.29552">
        <ele>321.22</ele>
        <time>2018-05-23T12:11:07Z</time>
      </trkpt>
      <trkpt lat="43.56505" lon="6.29548">
        <ele>321.22</ele>
        <time>2018-05-23T12:11:30Z</time>
      </trkpt>
      <trkpt lat="43.56505" lon="6.2955">
        <ele>321.22</ele>
        <time>2018-05-23T12:11:57Z</time>
      </trkpt>
      <trkpt lat="43.56501" lon="6.29555">
        <ele>321.22</ele>
        <time>2018-05-23T12:12:24Z</time>
      </trkpt>
      <trkpt lat="43.565" lon="6.29552">
        <ele>320.74</ele>
        <time>2018-05-23T12:12:50Z</time>
      </trkpt>
      <trkpt lat="43.56499" lon="6.29553">
        <ele>321.22</ele>
        <time>2018-05-23T12:13:20Z</time>
      </trkpt>
      <trkpt lat="43.56503" lon="6.29553">
        <ele>320.74</ele>
        <time>2018-05-23T12:13:48Z</time>
      </trkpt>
      <trkpt lat="43.56502" lon="6.29552">
        <ele>321.22</ele>
        <time>2018-05-23T12:14:12Z</time>
      </trkpt>
      <trkpt lat="43.565" lon="6.29551">
        <ele>321.22</ele>
        <time>2018-05-23T12:14:43Z</time>
      </trkpt>
      <trkpt lat="43.565" lon="6.29562">
        <ele>321.7</ele>
        <time>2018-05-23T12:15:02Z</time>
      </trkpt>
      <trkpt lat="43.56494" lon="6.29575">
        <ele>322.18</ele>
        <time>2018-05-23T12:15:13Z</time>
      </trkpt>
      <trkpt lat="43.56488" lon="6.29591">
        <ele>322.66</ele>
        <time>2018-05-23T12:15:28Z</time>
      </trkpt>
      <trkpt lat="43.5648" lon="6.29616">
        <ele>324.1</ele>
        <time>2018-05-23T12:15:47Z</time>
      </trkpt>
      <trkpt lat="43.56474" lon="6.29634">
        <ele>324.58</ele>
        <time>2018-05-23T12:16:01Z</time>
      </trkpt>
      <trkpt lat="43.5647" lon="6.29654">
        <ele>325.54</ele>
        <time>2018-05-23T12:16:17Z</time>
      </trkpt>
      <trkpt lat="43.56468" lon="6.29667">
        <ele>326.02</ele>
        <time>2018-05-23T12:16:29Z</time>
      </trkpt>
      <trkpt lat="43.56465" lon="6.29679">
        <ele>326.99</ele>
        <time>2018-05-23T12:16:38Z</time>
      </trkpt>
      <trkpt lat="43.56461" lon="6.29698">
        <ele>328.43</ele>
        <time>2018-05-23T12:16:54Z</time>
      </trkpt>
      <trkpt lat="43.56454" lon="6.29721">
        <ele>329.87</ele>
        <time>2018-05-23T12:17:12Z</time>
      </trkpt>
      <trkpt lat="43.56449" lon="6.29735">
        <ele>330.35</ele>
        <time>2018-05-23T12:17:29Z</time>
      </trkpt>
      <trkpt lat="43.56443" lon="6.29749">
        <ele>331.79</ele>
        <time>2018-05-23T12:17:43Z</time>
      </trkpt>
      <trkpt lat="43.5644" lon="6.29765">
        <ele>333.23</ele>
        <time>2018-05-23T12:18:01Z</time>
      </trkpt>
      <trkpt lat="43.56443" lon="6.29771">
        <ele>333.23</ele>
        <time>2018-05-23T12:18:21Z</time>
      </trkpt>
      <trkpt lat="43.56442" lon="6.29776">
        <ele>333.71</ele>
        <time>2018-05-23T12:18:33Z</time>
      </trkpt>
      <trkpt lat="43.5644" lon="6.29794">
        <ele>333.71</ele>
        <time>2018-05-23T12:18:50Z</time>
      </trkpt>
      <trkpt lat="43.56439" lon="6.29802">
        <ele>334.2</ele>
        <time>2018-05-23T12:19:09Z</time>
      </trkpt>
      <trkpt lat="43.56432" lon="6.29807">
        <ele>334.2</ele>
        <time>2018-05-23T12:19:21Z</time>
      </trkpt>
      <trkpt lat="43.5643" lon="6.29817">
        <ele>334.68</ele>
        <time>2018-05-23T12:19:36Z</time>
      </trkpt>
      <trkpt lat="43.56424" lon="6.29833">
        <ele>335.16</ele>
        <time>2018-05-23T12:19:50Z</time>
      </trkpt>
      <trkpt lat="43.56421" lon="6.29844">
        <ele>335.64</ele>
        <time>2018-05-23T12:20:01Z</time>
      </trkpt>
      <trkpt lat="43.56412" lon="6.29864">
        <ele>336.12</ele>
        <time>2018-05-23T12:20:20Z</time>
      </trkpt>
      <trkpt lat="43.56409" lon="6.29873">
        <ele>337.08</ele>
        <time>2018-05-23T12:20:32Z</time>
      </trkpt>
      <trkpt lat="43.56403" lon="6.29885">
        <ele>337.56</ele>
        <time>2018-05-23T12:20:45Z</time>
      </trkpt>
      <trkpt lat="43.56394" lon="6.29904">
        <ele>338.04</ele>
        <time>2018-05-23T12:21:01Z</time>
      </trkpt>
      <trkpt lat="43.56387" lon="6.29917">
        <ele>338.52</ele>
        <time>2018-05-23T12:21:12Z</time>
      </trkpt>
      <trkpt lat="43.5638" lon="6.29933">
        <ele>339.48</ele>
        <time>2018-05-23T12:21:26Z</time>
      </trkpt>
      <trkpt lat="43.56367" lon="6.29951">
        <ele>340.44</ele>
        <time>2018-05-23T12:21:43Z</time>
      </trkpt>
      <trkpt lat="43.56362" lon="6.29969">
        <ele>340.92</ele>
        <time>2018-05-23T12:21:58Z</time>
      </trkpt>
      <trkpt lat="43.56355" lon="6.2999">
        <ele>342.85</ele>
        <time>2018-05-23T12:22:13Z</time>
      </trkpt>
      <trkpt lat="43.56351" lon="6.29998">
        <ele>342.37</ele>
        <time>2018-05-23T12:22:29Z</time>
      </trkpt>
      <trkpt lat="43.56346" lon="6.30006">
        <ele>342.85</ele>
        <time>2018-05-23T12:22:45Z</time>
      </trkpt>
      <trkpt lat="43.56342" lon="6.30025">
        <ele>343.33</ele>
        <time>2018-05-23T12:23:01Z</time>
      </trkpt>
      <trkpt lat="43.56334" lon="6.30045">
        <ele>344.29</ele>
        <time>2018-05-23T12:23:16Z</time>
      </trkpt>
      <trkpt lat="43.56336" lon="6.30056">
        <ele>345.73</ele>
        <time>2018-05-23T12:23:29Z</time>
      </trkpt>
      <trkpt lat="43.56341" lon="6.30069">
        <ele>347.65</ele>
        <time>2018-05-23T12:23:41Z</time>
      </trkpt>
      <trkpt lat="43.56348" lon="6.30083">
        <ele>348.62</ele>
        <time>2018-05-23T12:23:53Z</time>
      </trkpt>
      <trkpt lat="43.56353" lon="6.30098">
        <ele>351.02</ele>
        <time>2018-05-23T12:24:07Z</time>
      </trkpt>
      <trkpt lat="43.56358" lon="6.30112">
        <ele>352.46</ele>
        <time>2018-05-23T12:24:23Z</time>
      </trkpt>
      <trkpt lat="43.56366" lon="6.30129">
        <ele>354.38</ele>
        <time>2018-05-23T12:24:39Z</time>
      </trkpt>
      <trkpt lat="43.56368" lon="6.30147">
        <ele>356.31</ele>
        <time>2018-05-23T12:24:53Z</time>
      </trkpt>
      <trkpt lat="43.56365" lon="6.30162">
        <ele>357.27</ele>
        <time>2018-05-23T12:25:05Z</time>
      </trkpt>
      <trkpt lat="43.56357" lon="6.30177">
        <ele>358.71</ele>
        <time>2018-05-23T12:25:20Z</time>
      </trkpt>
      <trkpt lat="43.56353" lon="6.30193">
        <ele>359.67</ele>
        <time>2018-05-23T12:25:35Z</time>
      </trkpt>
      <trkpt lat="43.5635" lon="6.30194">
        <ele>359.67</ele>
        <time>2018-05-23T12:25:58Z</time>
      </trkpt>
      <trkpt lat="43.56349" lon="6.30196">
        <ele>360.63</ele>
        <time>2018-05-23T12:26:19Z</time>
      </trkpt>
      <trkpt lat="43.56347" lon="6.302">
        <ele>359.67</ele>
        <time>2018-05-23T12:26:35Z</time>
      </trkpt>
      <trkpt lat="43.56339" lon="6.30198">
        <ele>360.63</ele>
        <time>2018-05-23T12:26:59Z</time>
      </trkpt>
      <trkpt lat="43.56339" lon="6.30197">
        <ele>360.15</ele>
        <time>2018-05-23T12:27:00Z</time>
      </trkpt>
      <trkpt lat="43.56338" lon="6.30197">
        <ele>360.63</ele>
        <time>2018-05-23T12:27:12Z</time>
      </trkpt>
      <trkpt lat="43.56333" lon="6.30197">
        <ele>361.11</ele>
        <time>2018-05-23T12:27:34Z</time>
      </trkpt>
      <trkpt lat="43.56331" lon="6.30198">
        <ele>361.11</ele>
        <time>2018-05-23T12:27:59Z</time>
      </trkpt>
      <trkpt lat="43.56334" lon="6.30192">
        <ele>361.59</ele>
        <time>2018-05-23T12:28:21Z</time>
      </trkpt>
      <trkpt lat="43.56334" lon="6.30193">
        <ele>361.59</ele>
        <time>2018-05-23T12:28:48Z</time>
      </trkpt>
      <trkpt lat="43.56333" lon="6.30196">
        <ele>362.55</ele>
        <time>2018-05-23T12:29:09Z</time>
      </trkpt>
      <trkpt lat="43.56338" lon="6.30195">
        <ele>362.07</ele>
        <time>2018-05-23T12:29:27Z</time>
      </trkpt>
      <trkpt lat="43.56344" lon="6.30201">
        <ele>363.04</ele>
        <time>2018-05-23T12:29:44Z</time>
      </trkpt>
      <trkpt lat="43.56334" lon="6.30214">
        <ele>363.52</ele>
        <time>2018-05-23T12:30:00Z</time>
      </trkpt>
      <trkpt lat="43.56322" lon="6.30216">
        <ele>362.55</ele>
        <time>2018-05-23T12:30:07Z</time>
      </trkpt>
      <trkpt lat="43.56306" lon="6.30217">
        <ele>361.11</ele>
        <time>2018-05-23T12:30:23Z</time>
      </trkpt>
      <trkpt lat="43.56289" lon="6.30222">
        <ele>361.11</ele>
        <time>2018-05-23T12:30:38Z</time>
      </trkpt>
      <trkpt lat="43.56276" lon="6.30226">
        <ele>362.07</ele>
        <time>2018-05-23T12:30:50Z</time>
      </trkpt>
      <trkpt lat="43.5626" lon="6.30232">
        <ele>362.55</ele>
        <time>2018-05-23T12:31:04Z</time>
      </trkpt>
      <trkpt lat="43.56255" lon="6.30234">
        <ele>362.55</ele>
        <time>2018-05-23T12:31:09Z</time>
      </trkpt>
      <trkpt lat="43.5624" lon="6.30237">
        <ele>362.55</ele>
        <time>2018-05-23T12:31:25Z</time>
      </trkpt>
      <trkpt lat="43.56227" lon="6.30237">
        <ele>363.04</ele>
        <time>2018-05-23T12:31:40Z</time>
      </trkpt>
      <trkpt lat="43.56212" lon="6.3024">
        <ele>363.04</ele>
        <time>2018-05-23T12:31:56Z</time>
      </trkpt>
      <trkpt lat="43.56205" lon="6.30241">
        <ele>363.52</ele>
        <time>2018-05-23T12:32:03Z</time>
      </trkpt>
      <trkpt lat="43.56193" lon="6.30236">
        <ele>365.44</ele>
        <time>2018-05-23T12:32:18Z</time>
      </trkpt>
      <trkpt lat="43.56187" lon="6.30235">
        <ele>364.96</ele>
        <time>2018-05-23T12:32:24Z</time>
      </trkpt>
      <trkpt lat="43.56175" lon="6.3024">
        <ele>364</ele>
        <time>2018-05-23T12:32:40Z</time>
      </trkpt>
      <trkpt lat="43.56162" lon="6.30253">
        <ele>363.04</ele>
        <time>2018-05-23T12:32:56Z</time>
      </trkpt>
      <trkpt lat="43.5615" lon="6.30267">
        <ele>362.55</ele>
        <time>2018-05-23T12:33:13Z</time>
      </trkpt>
      <trkpt lat="43.56144" lon="6.30283">
        <ele>362.07</ele>
        <time>2018-05-23T12:33:26Z</time>
      </trkpt>
      <trkpt lat="43.56136" lon="6.30309">
        <ele>362.07</ele>
        <time>2018-05-23T12:33:43Z</time>
      </trkpt>
      <trkpt lat="43.56132" lon="6.30325">
        <ele>362.07</ele>
        <time>2018-05-23T12:33:56Z</time>
      </trkpt>
      <trkpt lat="43.56129" lon="6.30349">
        <ele>362.07</ele>
        <time>2018-05-23T12:34:11Z</time>
      </trkpt>
      <trkpt lat="43.56128" lon="6.30357">
        <ele>362.55</ele>
        <time>2018-05-23T12:34:27Z</time>
      </trkpt>
      <trkpt lat="43.56129" lon="6.30372">
        <ele>362.07</ele>
        <time>2018-05-23T12:34:42Z</time>
      </trkpt>
      <trkpt lat="43.56127" lon="6.30371">
        <ele>362.07</ele>
        <time>2018-05-23T12:35:05Z</time>
      </trkpt>
      <trkpt lat="43.56128" lon="6.30374">
        <ele>362.07</ele>
        <time>2018-05-23T12:35:08Z</time>
      </trkpt>
      <trkpt lat="43.56128" lon="6.30385">
        <ele>362.55</ele>
        <time>2018-05-23T12:35:22Z</time>
      </trkpt>
      <trkpt lat="43.56129" lon="6.30397">
        <ele>362.07</ele>
        <time>2018-05-23T12:35:37Z</time>
      </trkpt>
      <trkpt lat="43.5613" lon="6.30413">
        <ele>363.04</ele>
        <time>2018-05-23T12:35:50Z</time>
      </trkpt>
      <trkpt lat="43.56128" lon="6.30424">
        <ele>363.52</ele>
        <time>2018-05-23T12:35:58Z</time>
      </trkpt>
      <trkpt lat="43.56121" lon="6.30451">
        <ele>363.52</ele>
        <time>2018-05-23T12:36:14Z</time>
      </trkpt>
      <trkpt lat="43.56118" lon="6.30476">
        <ele>363.52</ele>
        <time>2018-05-23T12:36:31Z</time>
      </trkpt>
      <trkpt lat="43.56112" lon="6.30494">
        <ele>364</ele>
        <time>2018-05-23T12:36:46Z</time>
      </trkpt>
      <trkpt lat="43.56107" lon="6.30507">
        <ele>364.48</ele>
        <time>2018-05-23T12:37:00Z</time>
      </trkpt>
      <trkpt lat="43.56103" lon="6.30526">
        <ele>364.48</ele>
        <time>2018-05-23T12:37:15Z</time>
      </trkpt>
      <trkpt lat="43.56098" lon="6.30544">
        <ele>364.96</ele>
        <time>2018-05-23T12:37:30Z</time>
      </trkpt>
      <trkpt lat="43.56093" lon="6.30562">
        <ele>365.44</ele>
        <time>2018-05-23T12:37:45Z</time>
      </trkpt>
      <trkpt lat="43.56088" lon="6.30582">
        <ele>365.92</ele>
        <time>2018-05-23T12:38:00Z</time>
      </trkpt>
      <trkpt lat="43.56087" lon="6.30593">
        <ele>366.88</ele>
        <time>2018-05-23T12:38:09Z</time>
      </trkpt>
      <trkpt lat="43.56085" lon="6.30595">
        <ele>367.36</ele>
        <time>2018-05-23T12:38:29Z</time>
      </trkpt>
      <trkpt lat="43.5608" lon="6.30611">
        <ele>368.32</ele>
        <time>2018-05-23T12:38:46Z</time>
      </trkpt>
      <trkpt lat="43.56077" lon="6.30632">
        <ele>370.24</ele>
        <time>2018-05-23T12:39:00Z</time>
      </trkpt>
      <trkpt lat="43.56076" lon="6.30647">
        <ele>371.21</ele>
        <time>2018-05-23T12:39:12Z</time>
      </trkpt>
      <trkpt lat="43.56073" lon="6.30668">
        <ele>372.17</ele>
        <time>2018-05-23T12:39:26Z</time>
      </trkpt>
      <trkpt lat="43.56065" lon="6.30686">
        <ele>372.65</ele>
        <time>2018-05-23T12:39:42Z</time>
      </trkpt>
      <trkpt lat="43.56057" lon="6.30709">
        <ele>372.17</ele>
        <time>2018-05-23T12:39:58Z</time>
      </trkpt>
      <trkpt lat="43.5605" lon="6.30729">
        <ele>373.13</ele>
        <time>2018-05-23T12:40:14Z</time>
      </trkpt>
      <trkpt lat="43.56037" lon="6.30754">
        <ele>373.61</ele>
        <time>2018-05-23T12:40:34Z</time>
      </trkpt>
      <trkpt lat="43.56034" lon="6.30777">
        <ele>374.09</ele>
        <time>2018-05-23T12:40:51Z</time>
      </trkpt>
      <trkpt lat="43.56027" lon="6.30797">
        <ele>373.61</ele>
        <time>2018-05-23T12:41:07Z</time>
      </trkpt>
      <trkpt lat="43.56025" lon="6.30827">
        <ele>373.61</ele>
        <time>2018-05-23T12:41:28Z</time>
      </trkpt>
      <trkpt lat="43.56026" lon="6.30849">
        <ele>373.61</ele>
        <time>2018-05-23T12:41:44Z</time>
      </trkpt>
      <trkpt lat="43.56028" lon="6.30873">
        <ele>375.05</ele>
        <time>2018-05-23T12:42:03Z</time>
      </trkpt>
      <trkpt lat="43.56035" lon="6.30893">
        <ele>376.49</ele>
        <time>2018-05-23T12:42:20Z</time>
      </trkpt>
      <trkpt lat="43.56042" lon="6.30911">
        <ele>377.45</ele>
        <time>2018-05-23T12:42:36Z</time>
      </trkpt>
      <trkpt lat="43.56047" lon="6.30917">
        <ele>377.45</ele>
        <time>2018-05-23T12:42:43Z</time>
      </trkpt>
      <trkpt lat="43.56058" lon="6.30946">
        <ele>377.45</ele>
        <time>2018-05-23T12:43:03Z</time>
      </trkpt>
      <trkpt lat="43.56059" lon="6.30968">
        <ele>376.49</ele>
        <time>2018-05-23T12:43:21Z</time>
      </trkpt>
      <trkpt lat="43.56065" lon="6.30988">
        <ele>376.01</ele>
        <time>2018-05-23T12:43:37Z</time>
      </trkpt>
      <trkpt lat="43.56065" lon="6.30985">
        <ele>376.49</ele>
        <time>2018-05-23T12:43:56Z</time>
      </trkpt>
      <trkpt lat="43.56071" lon="6.30999">
        <ele>376.49</ele>
        <time>2018-05-23T12:44:15Z</time>
      </trkpt>
      <trkpt lat="43.56073" lon="6.31013">
        <ele>376.97</ele>
        <time>2018-05-23T12:44:30Z</time>
      </trkpt>
      <trkpt lat="43.56077" lon="6.31033">
        <ele>377.94</ele>
        <time>2018-05-23T12:44:46Z</time>
      </trkpt>
      <trkpt lat="43.56083" lon="6.31051">
        <ele>378.9</ele>
        <time>2018-05-23T12:45:00Z</time>
      </trkpt>
      <trkpt lat="43.56091" lon="6.31071">
        <ele>379.38</ele>
        <time>2018-05-23T12:45:18Z</time>
      </trkpt>
      <trkpt lat="43.56088" lon="6.3109">
        <ele>379.38</ele>
        <time>2018-05-23T12:45:35Z</time>
      </trkpt>
      <trkpt lat="43.56093" lon="6.31108">
        <ele>380.82</ele>
        <time>2018-05-23T12:45:51Z</time>
      </trkpt>
      <trkpt lat="43.561" lon="6.31125">
        <ele>381.3</ele>
        <time>2018-05-23T12:46:07Z</time>
      </trkpt>
      <trkpt lat="43.56109" lon="6.31145">
        <ele>381.3</ele>
        <time>2018-05-23T12:46:25Z</time>
      </trkpt>
      <trkpt lat="43.56109" lon="6.31146">
        <ele>380.82</ele>
        <time>2018-05-23T12:46:26Z</time>
      </trkpt>
      <trkpt lat="43.56123" lon="6.31158">
        <ele>381.78</ele>
        <time>2018-05-23T12:46:43Z</time>
      </trkpt>
      <trkpt lat="43.56128" lon="6.3117">
        <ele>381.78</ele>
        <time>2018-05-23T12:46:59Z</time>
      </trkpt>
      <trkpt lat="43.56131" lon="6.31176">
        <ele>382.26</ele>
        <time>2018-05-23T12:47:20Z</time>
      </trkpt>
      <trkpt lat="43.56131" lon="6.31178">
        <ele>382.74</ele>
        <time>2018-05-23T12:47:22Z</time>
      </trkpt>
      <trkpt lat="43.56131" lon="6.312">
        <ele>383.7</ele>
        <time>2018-05-23T12:47:39Z</time>
      </trkpt>
      <trkpt lat="43.56131" lon="6.31215">
        <ele>383.7</ele>
        <time>2018-05-23T12:47:52Z</time>
      </trkpt>
      <trkpt lat="43.56133" lon="6.31234">
        <ele>384.18</ele>
        <time>2018-05-23T12:48:10Z</time>
      </trkpt>
      <trkpt lat="43.56142" lon="6.31239">
        <ele>384.18</ele>
        <time>2018-05-23T12:48:26Z</time>
      </trkpt>
      <trkpt lat="43.56151" lon="6.31248">
        <ele>385.15</ele>
        <time>2018-05-23T12:48:40Z</time>
      </trkpt>
      <trkpt lat="43.56155" lon="6.31265">
        <ele>386.11</ele>
        <time>2018-05-23T12:48:54Z</time>
      </trkpt>
      <trkpt lat="43.56155" lon="6.31271">
        <ele>386.11</ele>
        <time>2018-05-23T12:48:57Z</time>
      </trkpt>
      <trkpt lat="43.56155" lon="6.31288">
        <ele>386.59</ele>
        <time>2018-05-23T12:49:12Z</time>
      </trkpt>
      <trkpt lat="43.56157" lon="6.3131">
        <ele>387.07</ele>
        <time>2018-05-23T12:49:30Z</time>
      </trkpt>
      <trkpt lat="43.56162" lon="6.31318">
        <ele>387.07</ele>
        <time>2018-05-23T12:49:46Z</time>
      </trkpt>
      <trkpt lat="43.56164" lon="6.31329">
        <ele>387.07</ele>
        <time>2018-05-23T12:49:56Z</time>
      </trkpt>
      <trkpt lat="43.56172" lon="6.31344">
        <ele>387.55</ele>
        <time>2018-05-23T12:50:12Z</time>
      </trkpt>
      <trkpt lat="43.56177" lon="6.31356">
        <ele>388.99</ele>
        <time>2018-05-23T12:50:24Z</time>
      </trkpt>
      <trkpt lat="43.56185" lon="6.31367">
        <ele>389.47</ele>
        <time>2018-05-23T12:50:39Z</time>
      </trkpt>
      <trkpt lat="43.56194" lon="6.31377">
        <ele>389.95</ele>
        <time>2018-05-23T12:50:54Z</time>
      </trkpt>
      <trkpt lat="43.56199" lon="6.31394">
        <ele>390.91</ele>
        <time>2018-05-23T12:51:08Z</time>
      </trkpt>
      <trkpt lat="43.56204" lon="6.31406">
        <ele>391.39</ele>
        <time>2018-05-23T12:51:21Z</time>
      </trkpt>
      <trkpt lat="43.56209" lon="6.31418">
        <ele>392.84</ele>
        <time>2018-05-23T12:51:37Z</time>
      </trkpt>
      <trkpt lat="43.56215" lon="6.31433">
        <ele>393.8</ele>
        <time>2018-05-23T12:51:53Z</time>
      </trkpt>
      <trkpt lat="43.56217" lon="6.3144">
        <ele>394.76</ele>
        <time>2018-05-23T12:52:08Z</time>
      </trkpt>
      <trkpt lat="43.56221" lon="6.31446">
        <ele>395.24</ele>
        <time>2018-05-23T12:52:28Z</time>
      </trkpt>
      <trkpt lat="43.56227" lon="6.31459">
        <ele>394.28</ele>
        <time>2018-05-23T12:52:43Z</time>
      </trkpt>
      <trkpt lat="43.56231" lon="6.31475">
        <ele>392.84</ele>
        <time>2018-05-23T12:52:58Z</time>
      </trkpt>
      <trkpt lat="43.56232" lon="6.31487">
        <ele>392.84</ele>
        <time>2018-05-23T12:53:13Z</time>
      </trkpt>
      <trkpt lat="43.56234" lon="6.31493">
        <ele>392.84</ele>
        <time>2018-05-23T12:53:28Z</time>
      </trkpt>
      <trkpt lat="43.56231" lon="6.31491">
        <ele>391.87</ele>
        <time>2018-05-23T12:53:44Z</time>
      </trkpt>
      <trkpt lat="43.56229" lon="6.31494">
        <ele>392.36</ele>
        <time>2018-05-23T12:53:57Z</time>
      </trkpt>
      <trkpt lat="43.56226" lon="6.31492">
        <ele>392.84</ele>
        <time>2018-05-23T12:54:34Z</time>
      </trkpt>
      <trkpt lat="43.56227" lon="6.31493">
        <ele>392.84</ele>
        <time>2018-05-23T12:55:16Z</time>
      </trkpt>
      <trkpt lat="43.56228" lon="6.31494">
        <ele>392.84</ele>
        <time>2018-05-23T12:55:59Z</time>
      </trkpt>
      <trkpt lat="43.56228" lon="6.31493">
        <ele>392.36</ele>
        <time>2018-05-23T12:56:39Z</time>
      </trkpt>
      <trkpt lat="43.56229" lon="6.31491">
        <ele>393.32</ele>
        <time>2018-05-23T12:57:18Z</time>
      </trkpt>
      <trkpt lat="43.56231" lon="6.31489">
        <ele>393.8</ele>
        <time>2018-05-23T12:57:41Z</time>
      </trkpt>
      <trkpt lat="43.56229" lon="6.31492">
        <ele>393.8</ele>
        <time>2018-05-23T12:58:11Z</time>
      </trkpt>
      <trkpt lat="43.5623" lon="6.3149">
        <ele>395.24</ele>
        <time>2018-05-23T12:58:30Z</time>
      </trkpt>
      <trkpt lat="43.56229" lon="6.31489">
        <ele>394.28</ele>
        <time>2018-05-23T12:58:54Z</time>
      </trkpt>
      <trkpt lat="43.56228" lon="6.31491">
        <ele>393.8</ele>
        <time>2018-05-23T12:59:10Z</time>
      </trkpt>
      <trkpt lat="43.56222" lon="6.31488">
        <ele>393.32</ele>
        <time>2018-05-23T12:59:36Z</time>
      </trkpt>
      <trkpt lat="43.56224" lon="6.31485">
        <ele>394.28</ele>
        <time>2018-05-23T12:59:56Z</time>
      </trkpt>
      <trkpt lat="43.56231" lon="6.31494">
        <ele>394.76</ele>
        <time>2018-05-23T13:00:09Z</time>
      </trkpt>
      <trkpt lat="43.56231" lon="6.31491">
        <ele>394.76</ele>
        <time>2018-05-23T13:00:22Z</time>
      </trkpt>
      <trkpt lat="43.56239" lon="6.31496">
        <ele>396.2</ele>
        <time>2018-05-23T13:00:35Z</time>
      </trkpt>
      <trkpt lat="43.56242" lon="6.31503">
        <ele>396.2</ele>
        <time>2018-05-23T13:00:40Z</time>
      </trkpt>
      <trkpt lat="43.56245" lon="6.31511">
        <ele>395.72</ele>
        <time>2018-05-23T13:00:46Z</time>
      </trkpt>
      <trkpt lat="43.56246" lon="6.31513">
        <ele>395.72</ele>
        <time>2018-05-23T13:00:48Z</time>
      </trkpt>
      <trkpt lat="43.56246" lon="6.31516">
        <ele>395.72</ele>
        <time>2018-05-23T13:00:50Z</time>
      </trkpt>
      <trkpt lat="43.56249" lon="6.31536">
        <ele>396.2</ele>
        <time>2018-05-23T13:01:06Z</time>
      </trkpt>
      <trkpt lat="43.56252" lon="6.31551">
        <ele>396.2</ele>
        <time>2018-05-23T13:01:17Z</time>
      </trkpt>
      <trkpt lat="43.56259" lon="6.3157">
        <ele>396.68</ele>
        <time>2018-05-23T13:01:33Z</time>
      </trkpt>
      <trkpt lat="43.56267" lon="6.31588">
        <ele>398.12</ele>
        <time>2018-05-23T13:01:49Z</time>
      </trkpt>
      <trkpt lat="43.56275" lon="6.31604">
        <ele>398.12</ele>
        <time>2018-05-23T13:02:04Z</time>
      </trkpt>
      <trkpt lat="43.56284" lon="6.31617">
        <ele>397.64</ele>
        <time>2018-05-23T13:02:20Z</time>
      </trkpt>
      <trkpt lat="43.56291" lon="6.31631">
        <ele>398.12</ele>
        <time>2018-05-23T13:02:36Z</time>
      </trkpt>
      <trkpt lat="43.56296" lon="6.3165">
        <ele>398.6</ele>
        <time>2018-05-23T13:02:52Z</time>
      </trkpt>
      <trkpt lat="43.56304" lon="6.3166">
        <ele>400.05</ele>
        <time>2018-05-23T13:03:07Z</time>
      </trkpt>
      <trkpt lat="43.56309" lon="6.31658">
        <ele>401.01</ele>
        <time>2018-05-23T13:03:16Z</time>
      </trkpt>
      <trkpt lat="43.56316" lon="6.31653">
        <ele>402.45</ele>
        <time>2018-05-23T13:03:29Z</time>
      </trkpt>
      <trkpt lat="43.5632" lon="6.31645">
        <ele>404.37</ele>
        <time>2018-05-23T13:03:41Z</time>
      </trkpt>
      <trkpt lat="43.56327" lon="6.31637">
        <ele>406.77</ele>
        <time>2018-05-23T13:03:55Z</time>
      </trkpt>
      <trkpt lat="43.56333" lon="6.31631">
        <ele>408.22</ele>
        <time>2018-05-23T13:04:08Z</time>
      </trkpt>
      <trkpt lat="43.56342" lon="6.31625">
        <ele>408.7</ele>
        <time>2018-05-23T13:04:22Z</time>
      </trkpt>
      <trkpt lat="43.56348" lon="6.31612">
        <ele>406.77</ele>
        <time>2018-05-23T13:04:37Z</time>
      </trkpt>
      <trkpt lat="43.56357" lon="6.31595">
        <ele>406.29</ele>
        <time>2018-05-23T13:04:54Z</time>
      </trkpt>
      <trkpt lat="43.56368" lon="6.31584">
        <ele>405.33</ele>
        <time>2018-05-23T13:05:13Z</time>
      </trkpt>
      <trkpt lat="43.56386" lon="6.31575">
        <ele>404.85</ele>
        <time>2018-05-23T13:05:33Z</time>
      </trkpt>
      <trkpt lat="43.56395" lon="6.31569">
        <ele>403.89</ele>
        <time>2018-05-23T13:05:54Z</time>
      </trkpt>
      <trkpt lat="43.56406" lon="6.31561">
        <ele>402.45</ele>
        <time>2018-05-23T13:06:10Z</time>
      </trkpt>
      <trkpt lat="43.56414" lon="6.31549">
        <ele>401.97</ele>
        <time>2018-05-23T13:06:24Z</time>
      </trkpt>
      <trkpt lat="43.56425" lon="6.31535">
        <ele>402.45</ele>
        <time>2018-05-23T13:06:39Z</time>
      </trkpt>
      <trkpt lat="43.56432" lon="6.31518">
        <ele>403.89</ele>
        <time>2018-05-23T13:06:55Z</time>
      </trkpt>
      <trkpt lat="43.56438" lon="6.31504">
        <ele>404.37</ele>
        <time>2018-05-23T13:07:09Z</time>
      </trkpt>
      <trkpt lat="43.56445" lon="6.31488">
        <ele>405.81</ele>
        <time>2018-05-23T13:07:25Z</time>
      </trkpt>
      <trkpt lat="43.56446" lon="6.31472">
        <ele>407.74</ele>
        <time>2018-05-23T13:07:42Z</time>
      </trkpt>
      <trkpt lat="43.56446" lon="6.31459">
        <ele>409.66</ele>
        <time>2018-05-23T13:07:56Z</time>
      </trkpt>
      <trkpt lat="43.56457" lon="6.31451">
        <ele>411.1</ele>
        <time>2018-05-23T13:08:12Z</time>
      </trkpt>
      <trkpt lat="43.5647" lon="6.31463">
        <ele>410.62</ele>
        <time>2018-05-23T13:08:30Z</time>
      </trkpt>
      <trkpt lat="43.56482" lon="6.31456">
        <ele>412.06</ele>
        <time>2018-05-23T13:08:48Z</time>
      </trkpt>
      <trkpt lat="43.56488" lon="6.31439">
        <ele>413.5</ele>
        <time>2018-05-23T13:09:04Z</time>
      </trkpt>
      <trkpt lat="43.56491" lon="6.31426">
        <ele>413.98</ele>
        <time>2018-05-23T13:09:15Z</time>
      </trkpt>
      <trkpt lat="43.56497" lon="6.31411">
        <ele>413.98</ele>
        <time>2018-05-23T13:09:29Z</time>
      </trkpt>
      <trkpt lat="43.56504" lon="6.31395">
        <ele>413.5</ele>
        <time>2018-05-23T13:09:44Z</time>
      </trkpt>
      <trkpt lat="43.56506" lon="6.31392">
        <ele>413.5</ele>
        <time>2018-05-23T13:09:47Z</time>
      </trkpt>
      <trkpt lat="43.56515" lon="6.31378">
        <ele>413.98</ele>
        <time>2018-05-23T13:10:01Z</time>
      </trkpt>
      <trkpt lat="43.56523" lon="6.31372">
        <ele>413.98</ele>
        <time>2018-05-23T13:10:09Z</time>
      </trkpt>
      <trkpt lat="43.56534" lon="6.31362">
        <ele>413.98</ele>
        <time>2018-05-23T13:10:23Z</time>
      </trkpt>
      <trkpt lat="43.56546" lon="6.31349">
        <ele>415.43</ele>
        <time>2018-05-23T13:10:42Z</time>
      </trkpt>
      <trkpt lat="43.5656" lon="6.31341">
        <ele>417.83</ele>
        <time>2018-05-23T13:11:00Z</time>
      </trkpt>
      <trkpt lat="43.56573" lon="6.31332">
        <ele>419.27</ele>
        <time>2018-05-23T13:11:16Z</time>
      </trkpt>
      <trkpt lat="43.56586" lon="6.31314">
        <ele>418.79</ele>
        <time>2018-05-23T13:11:36Z</time>
      </trkpt>
      <trkpt lat="43.56598" lon="6.31296">
        <ele>418.79</ele>
        <time>2018-05-23T13:11:55Z</time>
      </trkpt>
      <trkpt lat="43.56612" lon="6.31285">
        <ele>419.27</ele>
        <time>2018-05-23T13:12:14Z</time>
      </trkpt>
      <trkpt lat="43.56631" lon="6.31274">
        <ele>419.27</ele>
        <time>2018-05-23T13:12:33Z</time>
      </trkpt>
      <trkpt lat="43.56647" lon="6.3127">
        <ele>419.75</ele>
        <time>2018-05-23T13:12:50Z</time>
      </trkpt>
      <trkpt lat="43.56662" lon="6.31265">
        <ele>420.71</ele>
        <time>2018-05-23T13:13:06Z</time>
      </trkpt>
      <trkpt lat="43.56678" lon="6.31259">
        <ele>419.75</ele>
        <time>2018-05-23T13:13:24Z</time>
      </trkpt>
      <trkpt lat="43.56692" lon="6.31254">
        <ele>418.31</ele>
        <time>2018-05-23T13:13:41Z</time>
      </trkpt>
      <trkpt lat="43.56706" lon="6.31246">
        <ele>417.83</ele>
        <time>2018-05-23T13:13:59Z</time>
      </trkpt>
      <trkpt lat="43.5672" lon="6.3123">
        <ele>417.83</ele>
        <time>2018-05-23T13:14:18Z</time>
      </trkpt>
      <trkpt lat="43.56736" lon="6.31224">
        <ele>419.27</ele>
        <time>2018-05-23T13:14:36Z</time>
      </trkpt>
      <trkpt lat="43.56748" lon="6.31211">
        <ele>419.75</ele>
        <time>2018-05-23T13:14:52Z</time>
      </trkpt>
      <trkpt lat="43.56761" lon="6.31196">
        <ele>420.71</ele>
        <time>2018-05-23T13:15:10Z</time>
      </trkpt>
      <trkpt lat="43.56765" lon="6.31182">
        <ele>421.19</ele>
        <time>2018-05-23T13:15:27Z</time>
      </trkpt>
      <trkpt lat="43.56766" lon="6.3118">
        <ele>419.27</ele>
        <time>2018-05-23T13:15:41Z</time>
      </trkpt>
      <trkpt lat="43.56769" lon="6.3118">
        <ele>419.27</ele>
        <time>2018-05-23T13:16:05Z</time>
      </trkpt>
      <trkpt lat="43.56768" lon="6.31181">
        <ele>419.27</ele>
        <time>2018-05-23T13:16:27Z</time>
      </trkpt>
      <trkpt lat="43.56765" lon="6.3118">
        <ele>419.27</ele>
        <time>2018-05-23T13:16:55Z</time>
      </trkpt>
      <trkpt lat="43.56766" lon="6.31179">
        <ele>419.75</ele>
        <time>2018-05-23T13:17:29Z</time>
      </trkpt>
      <trkpt lat="43.56766" lon="6.31182">
        <ele>419.75</ele>
        <time>2018-05-23T13:18:05Z</time>
      </trkpt>
      <trkpt lat="43.56765" lon="6.31182">
        <ele>421.68</ele>
        <time>2018-05-23T13:18:17Z</time>
      </trkpt>
      <trkpt lat="43.56769" lon="6.31175">
        <ele>421.68</ele>
        <time>2018-05-23T13:18:41Z</time>
      </trkpt>
      <trkpt lat="43.56765" lon="6.31171">
        <ele>423.12</ele>
        <time>2018-05-23T13:18:54Z</time>
      </trkpt>
      <trkpt lat="43.56761" lon="6.31157">
        <ele>425.52</ele>
        <time>2018-05-23T13:19:11Z</time>
      </trkpt>
      <trkpt lat="43.5676" lon="6.31143">
        <ele>427.44</ele>
        <time>2018-05-23T13:19:26Z</time>
      </trkpt>
      <trkpt lat="43.5676" lon="6.31129">
        <ele>429.85</ele>
        <time>2018-05-23T13:19:40Z</time>
      </trkpt>
      <trkpt lat="43.56753" lon="6.31116">
        <ele>431.29</ele>
        <time>2018-05-23T13:19:55Z</time>
      </trkpt>
      <trkpt lat="43.56748" lon="6.31104">
        <ele>433.21</ele>
        <time>2018-05-23T13:20:09Z</time>
      </trkpt>
      <trkpt lat="43.5674" lon="6.31091">
        <ele>435.13</ele>
        <time>2018-05-23T13:20:26Z</time>
      </trkpt>
      <trkpt lat="43.56735" lon="6.31078">
        <ele>436.58</ele>
        <time>2018-05-23T13:20:41Z</time>
      </trkpt>
      <trkpt lat="43.56727" lon="6.31065">
        <ele>438.02</ele>
        <time>2018-05-23T13:20:55Z</time>
      </trkpt>
      <trkpt lat="43.56718" lon="6.31049">
        <ele>438.98</ele>
        <time>2018-05-23T13:21:10Z</time>
      </trkpt>
      <trkpt lat="43.56717" lon="6.3104">
        <ele>438.98</ele>
        <time>2018-05-23T13:21:22Z</time>
      </trkpt>
      <trkpt lat="43.56714" lon="6.3104">
        <ele>439.46</ele>
        <time>2018-05-23T13:21:40Z</time>
      </trkpt>
      <trkpt lat="43.56706" lon="6.3104">
        <ele>440.9</ele>
        <time>2018-05-23T13:21:55Z</time>
      </trkpt>
      <trkpt lat="43.56698" lon="6.31034">
        <ele>442.34</ele>
        <time>2018-05-23T13:22:07Z</time>
      </trkpt>
      <trkpt lat="43.56696" lon="6.31015">
        <ele>443.79</ele>
        <time>2018-05-23T13:22:22Z</time>
      </trkpt>
      <trkpt lat="43.56693" lon="6.31001">
        <ele>445.23</ele>
        <time>2018-05-23T13:22:37Z</time>
      </trkpt>
      <trkpt lat="43.5669" lon="6.30983">
        <ele>446.67</ele>
        <time>2018-05-23T13:22:53Z</time>
      </trkpt>
      <trkpt lat="43.5668" lon="6.30969">
        <ele>448.59</ele>
        <time>2018-05-23T13:23:07Z</time>
      </trkpt>
      <trkpt lat="43.56678" lon="6.30969">
        <ele>448.59</ele>
        <time>2018-05-23T13:23:16Z</time>
      </trkpt>
      <trkpt lat="43.56685" lon="6.30965">
        <ele>448.11</ele>
        <time>2018-05-23T13:23:27Z</time>
      </trkpt>
      <trkpt lat="43.56687" lon="6.30965">
        <ele>448.59</ele>
        <time>2018-05-23T13:23:51Z</time>
      </trkpt>
      <trkpt lat="43.56687" lon="6.30963">
        <ele>448.59</ele>
        <time>2018-05-23T13:23:54Z</time>
      </trkpt>
      <trkpt lat="43.56695" lon="6.30954">
        <ele>449.07</ele>
        <time>2018-05-23T13:24:06Z</time>
      </trkpt>
      <trkpt lat="43.56707" lon="6.30939">
        <ele>448.11</ele>
        <time>2018-05-23T13:24:22Z</time>
      </trkpt>
      <trkpt lat="43.56717" lon="6.30924">
        <ele>448.11</ele>
        <time>2018-05-23T13:24:39Z</time>
      </trkpt>
      <trkpt lat="43.5673" lon="6.30907">
        <ele>447.63</ele>
        <time>2018-05-23T13:24:58Z</time>
      </trkpt>
      <trkpt lat="43.56735" lon="6.30889">
        <ele>447.15</ele>
        <time>2018-05-23T13:25:14Z</time>
      </trkpt>
      <trkpt lat="43.56739" lon="6.30868">
        <ele>446.19</ele>
        <time>2018-05-23T13:25:29Z</time>
      </trkpt>
      <trkpt lat="43.56752" lon="6.3085">
        <ele>445.71</ele>
        <time>2018-05-23T13:25:46Z</time>
      </trkpt>
      <trkpt lat="43.56761" lon="6.3084">
        <ele>445.71</ele>
        <time>2018-05-23T13:26:01Z</time>
      </trkpt>
      <trkpt lat="43.56776" lon="6.30826">
        <ele>443.79</ele>
        <time>2018-05-23T13:26:19Z</time>
      </trkpt>
      <trkpt lat="43.56792" lon="6.30815">
        <ele>442.82</ele>
        <time>2018-05-23T13:26:40Z</time>
      </trkpt>
      <trkpt lat="43.5681" lon="6.30807">
        <ele>442.82</ele>
        <time>2018-05-23T13:26:58Z</time>
      </trkpt>
      <trkpt lat="43.56831" lon="6.30802">
        <ele>442.34</ele>
        <time>2018-05-23T13:27:18Z</time>
      </trkpt>
      <trkpt lat="43.56847" lon="6.30799">
        <ele>441.86</ele>
        <time>2018-05-23T13:27:35Z</time>
      </trkpt>
      <trkpt lat="43.56863" lon="6.30797">
        <ele>441.86</ele>
        <time>2018-05-23T13:27:51Z</time>
      </trkpt>
      <trkpt lat="43.56882" lon="6.30804">
        <ele>442.34</ele>
        <time>2018-05-23T13:28:09Z</time>
      </trkpt>
      <trkpt lat="43.56891" lon="6.30799">
        <ele>442.34</ele>
        <time>2018-05-23T13:28:27Z</time>
      </trkpt>
      <trkpt lat="43.56901" lon="6.30793">
        <ele>441.38</ele>
        <time>2018-05-23T13:28:40Z</time>
      </trkpt>
      <trkpt lat="43.56914" lon="6.30787">
        <ele>441.38</ele>
        <time>2018-05-23T13:28:52Z</time>
      </trkpt>
      <trkpt lat="43.56917" lon="6.30785">
        <ele>441.38</ele>
        <time>2018-05-23T13:28:56Z</time>
      </trkpt>
      <trkpt lat="43.56919" lon="6.30778">
        <ele>442.82</ele>
        <time>2018-05-23T13:29:10Z</time>
      </trkpt>
      <trkpt lat="43.5692" lon="6.30775">
        <ele>442.82</ele>
        <time>2018-05-23T13:29:15Z</time>
      </trkpt>
      <trkpt lat="43.56925" lon="6.3077">
        <ele>442.34</ele>
        <time>2018-05-23T13:29:25Z</time>
      </trkpt>
      <trkpt lat="43.56933" lon="6.30755">
        <ele>442.82</ele>
        <time>2018-05-23T13:29:37Z</time>
      </trkpt>
      <trkpt lat="43.56939" lon="6.30731">
        <ele>443.31</ele>
        <time>2018-05-23T13:29:53Z</time>
      </trkpt>
      <trkpt lat="43.56944" lon="6.30712">
        <ele>443.79</ele>
        <time>2018-05-23T13:30:10Z</time>
      </trkpt>
      <trkpt lat="43.56949" lon="6.30691">
        <ele>443.79</ele>
        <time>2018-05-23T13:30:24Z</time>
      </trkpt>
      <trkpt lat="43.56956" lon="6.30669">
        <ele>444.27</ele>
        <time>2018-05-23T13:30:41Z</time>
      </trkpt>
      <trkpt lat="43.56958" lon="6.30646">
        <ele>445.23</ele>
        <time>2018-05-23T13:30:56Z</time>
      </trkpt>
      <trkpt lat="43.56964" lon="6.30628">
        <ele>445.71</ele>
        <time>2018-05-23T13:31:10Z</time>
      </trkpt>
      <trkpt lat="43.5697" lon="6.30607">
        <ele>445.23</ele>
        <time>2018-05-23T13:31:26Z</time>
      </trkpt>
      <trkpt lat="43.56975" lon="6.30588">
        <ele>444.75</ele>
        <time>2018-05-23T13:31:42Z</time>
      </trkpt>
      <trkpt lat="43.56979" lon="6.30564">
        <ele>445.23</ele>
        <time>2018-05-23T13:31:58Z</time>
      </trkpt>
      <trkpt lat="43.56984" lon="6.30535">
        <ele>444.75</ele>
        <time>2018-05-23T13:32:17Z</time>
      </trkpt>
      <trkpt lat="43.56982" lon="6.30516">
        <ele>444.75</ele>
        <time>2018-05-23T13:32:33Z</time>
      </trkpt>
      <trkpt lat="43.56984" lon="6.30493">
        <ele>444.27</ele>
        <time>2018-05-23T13:32:50Z</time>
      </trkpt>
      <trkpt lat="43.56985" lon="6.30485">
        <ele>443.79</ele>
        <time>2018-05-23T13:32:58Z</time>
      </trkpt>
      <trkpt lat="43.56986" lon="6.3048">
        <ele>444.75</ele>
        <time>2018-05-23T13:33:11Z</time>
      </trkpt>
      <trkpt lat="43.56986" lon="6.30486">
        <ele>444.75</ele>
        <time>2018-05-23T13:33:26Z</time>
      </trkpt>
      <trkpt lat="43.56989" lon="6.30488">
        <ele>444.27</ele>
        <time>2018-05-23T13:33:56Z</time>
      </trkpt>
      <trkpt lat="43.56985" lon="6.30488">
        <ele>445.23</ele>
        <time>2018-05-23T13:34:25Z</time>
      </trkpt>
      <trkpt lat="43.56988" lon="6.30486">
        <ele>444.27</ele>
        <time>2018-05-23T13:34:47Z</time>
      </trkpt>
      <trkpt lat="43.56987" lon="6.30487">
        <ele>444.27</ele>
        <time>2018-05-23T13:35:18Z</time>
      </trkpt>
      <trkpt lat="43.56986" lon="6.30489">
        <ele>444.27</ele>
        <time>2018-05-23T13:35:52Z</time>
      </trkpt>
      <trkpt lat="43.56985" lon="6.30488">
        <ele>444.75</ele>
        <time>2018-05-23T13:36:27Z</time>
      </trkpt>
      <trkpt lat="43.56985" lon="6.30487">
        <ele>445.23</ele>
        <time>2018-05-23T13:36:47Z</time>
      </trkpt>
      <trkpt lat="43.56985" lon="6.30486">
        <ele>447.15</ele>
        <time>2018-05-23T13:36:59Z</time>
      </trkpt>
      <trkpt lat="43.56992" lon="6.30487">
        <ele>445.71</ele>
        <time>2018-05-23T13:37:10Z</time>
      </trkpt>
      <trkpt lat="43.56994" lon="6.30487">
        <ele>445.23</ele>
        <time>2018-05-23T13:37:13Z</time>
      </trkpt>
      <trkpt lat="43.57013" lon="6.30486">
        <ele>445.23</ele>
        <time>2018-05-23T13:37:32Z</time>
      </trkpt>
      <trkpt lat="43.57029" lon="6.30491">
        <ele>444.75</ele>
        <time>2018-05-23T13:37:48Z</time>
      </trkpt>
      <trkpt lat="43.57047" lon="6.30498">
        <ele>444.75</ele>
        <time>2018-05-23T13:38:04Z</time>
      </trkpt>
      <trkpt lat="43.57063" lon="6.30507">
        <ele>445.23</ele>
        <time>2018-05-23T13:38:18Z</time>
      </trkpt>
      <trkpt lat="43.57076" lon="6.30513">
        <ele>446.19</ele>
        <time>2018-05-23T13:38:33Z</time>
      </trkpt>
      <trkpt lat="43.57087" lon="6.30523">
        <ele>447.63</ele>
        <time>2018-05-23T13:38:48Z</time>
      </trkpt>
      <trkpt lat="43.57088" lon="6.30524">
        <ele>447.63</ele>
        <time>2018-05-23T13:38:49Z</time>
      </trkpt>
      <trkpt lat="43.57103" lon="6.30536">
        <ele>449.07</ele>
        <time>2018-05-23T13:39:06Z</time>
      </trkpt>
      <trkpt lat="43.57105" lon="6.30539">
        <ele>449.55</ele>
        <time>2018-05-23T13:39:08Z</time>
      </trkpt>
      <trkpt lat="43.57117" lon="6.30545">
        <ele>450.52</ele>
        <time>2018-05-23T13:39:24Z</time>
      </trkpt>
      <trkpt lat="43.57122" lon="6.30547">
        <ele>451.48</ele>
        <time>2018-05-23T13:39:42Z</time>
      </trkpt>
      <trkpt lat="43.57121" lon="6.30538">
        <ele>451.48</ele>
        <time>2018-05-23T13:40:02Z</time>
      </trkpt>
      <trkpt lat="43.57125" lon="6.3052">
        <ele>451.96</ele>
        <time>2018-05-23T13:40:17Z</time>
      </trkpt>
      <trkpt lat="43.57121" lon="6.3051">
        <ele>451.48</ele>
        <time>2018-05-23T13:40:29Z</time>
      </trkpt>
      <trkpt lat="43.57126" lon="6.30487">
        <ele>451</ele>
        <time>2018-05-23T13:40:45Z</time>
      </trkpt>
      <trkpt lat="43.5713" lon="6.30462">
        <ele>450.52</ele>
        <time>2018-05-23T13:41:04Z</time>
      </trkpt>
      <trkpt lat="43.57133" lon="6.30444">
        <ele>450.03</ele>
        <time>2018-05-23T13:41:23Z</time>
      </trkpt>
      <trkpt lat="43.57147" lon="6.30449">
        <ele>449.07</ele>
        <time>2018-05-23T13:41:40Z</time>
      </trkpt>
      <trkpt lat="43.5716" lon="6.30465">
        <ele>447.63</ele>
        <time>2018-05-23T13:41:58Z</time>
      </trkpt>
      <trkpt lat="43.57171" lon="6.30485">
        <ele>445.71</ele>
        <time>2018-05-23T13:42:18Z</time>
      </trkpt>
      <trkpt lat="43.57182" lon="6.305">
        <ele>444.27</ele>
        <time>2018-05-23T13:42:36Z</time>
      </trkpt>
      <trkpt lat="43.57193" lon="6.30513">
        <ele>442.34</ele>
        <time>2018-05-23T13:42:54Z</time>
      </trkpt>
      <trkpt lat="43.57201" lon="6.30522">
        <ele>440.42</ele>
        <time>2018-05-23T13:43:09Z</time>
      </trkpt>
      <trkpt lat="43.57215" lon="6.30532">
        <ele>438.5</ele>
        <time>2018-05-23T13:43:28Z</time>
      </trkpt>
      <trkpt lat="43.57223" lon="6.30542">
        <ele>437.06</ele>
        <time>2018-05-23T13:43:45Z</time>
      </trkpt>
      <trkpt lat="43.57237" lon="6.30547">
        <ele>435.61</ele>
        <time>2018-05-23T13:44:03Z</time>
      </trkpt>
      <trkpt lat="43.57249" lon="6.3056">
        <ele>434.65</ele>
        <time>2018-05-23T13:44:19Z</time>
      </trkpt>
      <trkpt lat="43.57261" lon="6.30566">
        <ele>434.65</ele>
        <time>2018-05-23T13:44:35Z</time>
      </trkpt>
      <trkpt lat="43.57273" lon="6.30561">
        <ele>433.21</ele>
        <time>2018-05-23T13:44:52Z</time>
      </trkpt>
      <trkpt lat="43.57281" lon="6.30545">
        <ele>432.73</ele>
        <time>2018-05-23T13:45:07Z</time>
      </trkpt>
      <trkpt lat="43.57289" lon="6.30541">
        <ele>432.73</ele>
        <time>2018-05-23T13:45:23Z</time>
      </trkpt>
      <trkpt lat="43.57288" lon="6.3054">
        <ele>433.21</ele>
        <time>2018-05-23T13:45:32Z</time>
      </trkpt>
      <trkpt lat="43.57292" lon="6.30538">
        <ele>433.69</ele>
        <time>2018-05-23T13:52:48Z</time>
      </trkpt>
      <trkpt lat="43.573" lon="6.30536">
        <ele>435.61</ele>
        <time>2018-05-23T13:53:05Z</time>
      </trkpt>
      <trkpt lat="43.57312" lon="6.30527">
        <ele>434.65</ele>
        <time>2018-05-23T13:53:24Z</time>
      </trkpt>
      <trkpt lat="43.57322" lon="6.30523">
        <ele>435.13</ele>
        <time>2018-05-23T13:53:41Z</time>
      </trkpt>
      <trkpt lat="43.57342" lon="6.30527">
        <ele>436.58</ele>
        <time>2018-05-23T13:54:00Z</time>
      </trkpt>
      <trkpt lat="43.57355" lon="6.30538">
        <ele>437.06</ele>
        <time>2018-05-23T13:54:19Z</time>
      </trkpt>
      <trkpt lat="43.5737" lon="6.30549">
        <ele>435.61</ele>
        <time>2018-05-23T13:54:39Z</time>
      </trkpt>
      <trkpt lat="43.57385" lon="6.30554">
        <ele>433.21</ele>
        <time>2018-05-23T13:54:59Z</time>
      </trkpt>
      <trkpt lat="43.57392" lon="6.30559">
        <ele>431.77</ele>
        <time>2018-05-23T13:55:17Z</time>
      </trkpt>
      <trkpt lat="43.57399" lon="6.30559">
        <ele>430.81</ele>
        <time>2018-05-23T13:55:39Z</time>
      </trkpt>
      <trkpt lat="43.57404" lon="6.30562">
        <ele>432.25</ele>
        <time>2018-05-23T13:55:55Z</time>
      </trkpt>
      <trkpt lat="43.57404" lon="6.30551">
        <ele>434.65</ele>
        <time>2018-05-23T13:56:13Z</time>
      </trkpt>
      <trkpt lat="43.57402" lon="6.30537">
        <ele>436.58</ele>
        <time>2018-05-23T13:56:30Z</time>
      </trkpt>
      <trkpt lat="43.57395" lon="6.30523">
        <ele>438.98</ele>
        <time>2018-05-23T13:56:46Z</time>
      </trkpt>
      <trkpt lat="43.57387" lon="6.30512">
        <ele>438.5</ele>
        <time>2018-05-23T13:57:01Z</time>
      </trkpt>
      <trkpt lat="43.57382" lon="6.30501">
        <ele>438.02</ele>
        <time>2018-05-23T13:57:19Z</time>
      </trkpt>
      <trkpt lat="43.57376" lon="6.30492">
        <ele>439.94</ele>
        <time>2018-05-23T13:57:34Z</time>
      </trkpt>
      <trkpt lat="43.5737" lon="6.30465">
        <ele>441.38</ele>
        <time>2018-05-23T13:57:52Z</time>
      </trkpt>
      <trkpt lat="43.57363" lon="6.3045">
        <ele>442.34</ele>
        <time>2018-05-23T13:58:13Z</time>
      </trkpt>
      <trkpt lat="43.57373" lon="6.30449">
        <ele>441.86</ele>
        <time>2018-05-23T13:58:27Z</time>
      </trkpt>
      <trkpt lat="43.57375" lon="6.30447">
        <ele>442.82</ele>
        <time>2018-05-23T13:58:35Z</time>
      </trkpt>
      <trkpt lat="43.57375" lon="6.30447">
        <ele>439.94</ele>
        <time>2018-05-23T13:58:37Z</time>
      </trkpt>
      <trkpt lat="43.57375" lon="6.30449">
        <ele>444.27</ele>
        <time>2018-05-23T13:58:54Z</time>
      </trkpt>
      <trkpt lat="43.57375" lon="6.30449">
        <ele>440.42</ele>
        <time>2018-05-23T13:59:00Z</time>
      </trkpt>
      <trkpt lat="43.57376" lon="6.30449">
        <ele>443.31</ele>
        <time>2018-05-23T13:59:02Z</time>
      </trkpt>
      <trkpt lat="43.57376" lon="6.30449">
        <ele>440.9</ele>
        <time>2018-05-23T13:59:30Z</time>
      </trkpt>
      <trkpt lat="43.57374" lon="6.30442">
        <ele>442.34</ele>
        <time>2018-05-23T13:59:54Z</time>
      </trkpt>
      <trkpt lat="43.57381" lon="6.30432">
        <ele>439.46</ele>
        <time>2018-05-23T14:00:12Z</time>
      </trkpt>
      <trkpt lat="43.57389" lon="6.30433">
        <ele>437.54</ele>
        <time>2018-05-23T14:00:26Z</time>
      </trkpt>
      <trkpt lat="43.57402" lon="6.30428">
        <ele>436.1</ele>
        <time>2018-05-23T14:00:41Z</time>
      </trkpt>
      <trkpt lat="43.57415" lon="6.30423">
        <ele>435.13</ele>
        <time>2018-05-23T14:00:56Z</time>
      </trkpt>
      <trkpt lat="43.57416" lon="6.30415">
        <ele>434.17</ele>
        <time>2018-05-23T14:01:07Z</time>
      </trkpt>
      <trkpt lat="43.57408" lon="6.30412">
        <ele>433.21</ele>
        <time>2018-05-23T14:01:19Z</time>
      </trkpt>
      <trkpt lat="43.574" lon="6.30393">
        <ele>431.77</ele>
        <time>2018-05-23T14:01:39Z</time>
      </trkpt>
      <trkpt lat="43.57398" lon="6.30388">
        <ele>431.77</ele>
        <time>2018-05-23T14:01:45Z</time>
      </trkpt>
      <trkpt lat="43.57393" lon="6.30378">
        <ele>431.77</ele>
        <time>2018-05-23T14:02:03Z</time>
      </trkpt>
      <trkpt lat="43.57391" lon="6.30371">
        <ele>431.77</ele>
        <time>2018-05-23T14:02:17Z</time>
      </trkpt>
      <trkpt lat="43.57386" lon="6.30363">
        <ele>430.81</ele>
        <time>2018-05-23T14:02:31Z</time>
      </trkpt>
      <trkpt lat="43.57377" lon="6.30354">
        <ele>429.85</ele>
        <time>2018-05-23T14:02:47Z</time>
      </trkpt>
      <trkpt lat="43.57372" lon="6.30339">
        <ele>428.4</ele>
        <time>2018-05-23T14:03:03Z</time>
      </trkpt>
      <trkpt lat="43.57377" lon="6.30334">
        <ele>428.4</ele>
        <time>2018-05-23T14:03:18Z</time>
      </trkpt>
      <trkpt lat="43.57379" lon="6.30328">
        <ele>428.4</ele>
        <time>2018-05-23T14:03:40Z</time>
      </trkpt>
      <trkpt lat="43.57371" lon="6.30332">
        <ele>427.92</ele>
        <time>2018-05-23T14:03:54Z</time>
      </trkpt>
      <trkpt lat="43.57365" lon="6.30325">
        <ele>426</ele>
        <time>2018-05-23T14:04:08Z</time>
      </trkpt>
      <trkpt lat="43.57362" lon="6.30308">
        <ele>424.08</ele>
        <time>2018-05-23T14:04:23Z</time>
      </trkpt>
      <trkpt lat="43.57354" lon="6.30302">
        <ele>421.68</ele>
        <time>2018-05-23T14:04:38Z</time>
      </trkpt>
      <trkpt lat="43.57348" lon="6.30296">
        <ele>420.71</ele>
        <time>2018-05-23T14:04:50Z</time>
      </trkpt>
      <trkpt lat="43.57345" lon="6.30286">
        <ele>418.79</ele>
        <time>2018-05-23T14:05:03Z</time>
      </trkpt>
      <trkpt lat="43.57341" lon="6.3028">
        <ele>416.39</ele>
        <time>2018-05-23T14:05:19Z</time>
      </trkpt>
      <trkpt lat="43.57335" lon="6.30273">
        <ele>413.5</ele>
        <time>2018-05-23T14:05:34Z</time>
      </trkpt>
      <trkpt lat="43.57333" lon="6.30272">
        <ele>413.5</ele>
        <time>2018-05-23T14:05:36Z</time>
      </trkpt>
      <trkpt lat="43.57322" lon="6.30275">
        <ele>412.54</ele>
        <time>2018-05-23T14:05:53Z</time>
      </trkpt>
      <trkpt lat="43.57313" lon="6.30264">
        <ele>410.14</ele>
        <time>2018-05-23T14:06:10Z</time>
      </trkpt>
      <trkpt lat="43.57307" lon="6.30254">
        <ele>408.7</ele>
        <time>2018-05-23T14:06:24Z</time>
      </trkpt>
      <trkpt lat="43.57302" lon="6.30241">
        <ele>405.81</ele>
        <time>2018-05-23T14:06:41Z</time>
      </trkpt>
      <trkpt lat="43.5729" lon="6.30231">
        <ele>404.37</ele>
        <time>2018-05-23T14:06:59Z</time>
      </trkpt>
      <trkpt lat="43.57288" lon="6.30223">
        <ele>403.89</ele>
        <time>2018-05-23T14:07:15Z</time>
      </trkpt>
      <trkpt lat="43.57283" lon="6.30219">
        <ele>402.45</ele>
        <time>2018-05-23T14:12:47Z</time>
      </trkpt>
      <trkpt lat="43.5728" lon="6.30218">
        <ele>402.45</ele>
        <time>2018-05-23T14:12:56Z</time>
      </trkpt>
      <trkpt lat="43.5727" lon="6.30213">
        <ele>401.97</ele>
        <time>2018-05-23T14:13:08Z</time>
      </trkpt>
      <trkpt lat="43.57266" lon="6.30212">
        <ele>401.49</ele>
        <time>2018-05-23T14:13:13Z</time>
      </trkpt>
      <trkpt lat="43.5726" lon="6.30211">
        <ele>402.45</ele>
        <time>2018-05-23T14:13:20Z</time>
      </trkpt>
      <trkpt lat="43.5725" lon="6.30201">
        <ele>401.49</ele>
        <time>2018-05-23T14:13:31Z</time>
      </trkpt>
      <trkpt lat="43.57247" lon="6.30192">
        <ele>400.05</ele>
        <time>2018-05-23T14:13:43Z</time>
      </trkpt>
      <trkpt lat="43.57246" lon="6.30191">
        <ele>399.57</ele>
        <time>2018-05-23T14:13:45Z</time>
      </trkpt>
      <trkpt lat="43.57242" lon="6.30189">
        <ele>399.08</ele>
        <time>2018-05-23T14:13:58Z</time>
      </trkpt>
      <trkpt lat="43.57244" lon="6.30183">
        <ele>398.6</ele>
        <time>2018-05-23T14:14:11Z</time>
      </trkpt>
      <trkpt lat="43.57248" lon="6.30177">
        <ele>397.64</ele>
        <time>2018-05-23T14:14:27Z</time>
      </trkpt>
      <trkpt lat="43.57252" lon="6.30162">
        <ele>396.2</ele>
        <time>2018-05-23T14:14:43Z</time>
      </trkpt>
      <trkpt lat="43.57253" lon="6.30144">
        <ele>395.24</ele>
        <time>2018-05-23T14:15:00Z</time>
      </trkpt>
      <trkpt lat="43.57258" lon="6.3016">
        <ele>395.24</ele>
        <time>2018-05-23T14:15:21Z</time>
      </trkpt>
      <trkpt lat="43.57258" lon="6.30157">
        <ele>394.28</ele>
        <time>2018-05-23T14:15:44Z</time>
      </trkpt>
      <trkpt lat="43.57258" lon="6.30157">
        <ele>393.8</ele>
        <time>2018-05-23T14:16:16Z</time>
      </trkpt>
      <trkpt lat="43.57253" lon="6.30151">
        <ele>394.28</ele>
        <time>2018-05-23T14:16:57Z</time>
      </trkpt>
      <trkpt lat="43.57262" lon="6.30143">
        <ele>394.76</ele>
        <time>2018-05-23T14:17:37Z</time>
      </trkpt>
      <trkpt lat="43.5726" lon="6.30159">
        <ele>394.76</ele>
        <time>2018-05-23T14:18:18Z</time>
      </trkpt>
      <trkpt lat="43.57251" lon="6.30143">
        <ele>394.76</ele>
        <time>2018-05-23T14:18:55Z</time>
      </trkpt>
      <trkpt lat="43.57256" lon="6.30146">
        <ele>394.76</ele>
        <time>2018-05-23T14:19:30Z</time>
      </trkpt>
      <trkpt lat="43.57252" lon="6.30153">
        <ele>398.6</ele>
        <time>2018-05-23T14:19:53Z</time>
      </trkpt>
      <trkpt lat="43.57251" lon="6.30153">
        <ele>396.68</ele>
        <time>2018-05-23T14:19:54Z</time>
      </trkpt>
      <trkpt lat="43.5725" lon="6.30154">
        <ele>395.24</ele>
        <time>2018-05-23T14:19:56Z</time>
      </trkpt>
      <trkpt lat="43.57255" lon="6.30138">
        <ele>395.72</ele>
        <time>2018-05-23T14:20:20Z</time>
      </trkpt>
      <trkpt lat="43.57254" lon="6.30141">
        <ele>396.2</ele>
        <time>2018-05-23T14:20:44Z</time>
      </trkpt>
      <trkpt lat="43.57254" lon="6.30145">
        <ele>395.72</ele>
        <time>2018-05-23T14:21:01Z</time>
      </trkpt>
      <trkpt lat="43.57248" lon="6.30133">
        <ele>394.28</ele>
        <time>2018-05-23T14:21:17Z</time>
      </trkpt>
      <trkpt lat="43.5724" lon="6.30122">
        <ele>391.87</ele>
        <time>2018-05-23T14:21:34Z</time>
      </trkpt>
      <trkpt lat="43.57232" lon="6.30105">
        <ele>389.95</ele>
        <time>2018-05-23T14:21:51Z</time>
      </trkpt>
      <trkpt lat="43.57229" lon="6.30094">
        <ele>389.47</ele>
        <time>2018-05-23T14:22:06Z</time>
      </trkpt>
      <trkpt lat="43.57226" lon="6.30083">
        <ele>387.55</ele>
        <time>2018-05-23T14:22:17Z</time>
      </trkpt>
      <trkpt lat="43.57221" lon="6.30072">
        <ele>385.63</ele>
        <time>2018-05-23T14:22:31Z</time>
      </trkpt>
      <trkpt lat="43.57216" lon="6.30058">
        <ele>383.22</ele>
        <time>2018-05-23T14:22:47Z</time>
      </trkpt>
      <trkpt lat="43.57216" lon="6.30036">
        <ele>380.34</ele>
        <time>2018-05-23T14:23:07Z</time>
      </trkpt>
      <trkpt lat="43.57221" lon="6.3002">
        <ele>379.38</ele>
        <time>2018-05-23T14:23:22Z</time>
      </trkpt>
      <trkpt lat="43.57228" lon="6.30001">
        <ele>378.42</ele>
        <time>2018-05-23T14:23:39Z</time>
      </trkpt>
      <trkpt lat="43.57238" lon="6.29983">
        <ele>378.42</ele>
        <time>2018-05-23T14:23:57Z</time>
      </trkpt>
      <trkpt lat="43.57244" lon="6.29968">
        <ele>377.45</ele>
        <time>2018-05-23T14:24:13Z</time>
      </trkpt>
      <trkpt lat="43.57251" lon="6.29951">
        <ele>376.01</ele>
        <time>2018-05-23T14:24:30Z</time>
      </trkpt>
      <trkpt lat="43.57253" lon="6.29934">
        <ele>375.53</ele>
        <time>2018-05-23T14:24:45Z</time>
      </trkpt>
      <trkpt lat="43.57256" lon="6.29914">
        <ele>375.05</ele>
        <time>2018-05-23T14:25:01Z</time>
      </trkpt>
      <trkpt lat="43.57262" lon="6.29894">
        <ele>375.53</ele>
        <time>2018-05-23T14:25:18Z</time>
      </trkpt>
      <trkpt lat="43.57261" lon="6.29887">
        <ele>374.57</ele>
        <time>2018-05-23T14:25:25Z</time>
      </trkpt>
      <trkpt lat="43.57256" lon="6.29873">
        <ele>375.05</ele>
        <time>2018-05-23T14:25:39Z</time>
      </trkpt>
      <trkpt lat="43.57252" lon="6.29853">
        <ele>374.09</ele>
        <time>2018-05-23T14:25:55Z</time>
      </trkpt>
      <trkpt lat="43.57246" lon="6.29826">
        <ele>374.57</ele>
        <time>2018-05-23T14:26:14Z</time>
      </trkpt>
      <trkpt lat="43.57242" lon="6.29806">
        <ele>374.57</ele>
        <time>2018-05-23T14:26:29Z</time>
      </trkpt>
      <trkpt lat="43.57239" lon="6.29784">
        <ele>373.13</ele>
        <time>2018-05-23T14:26:46Z</time>
      </trkpt>
      <trkpt lat="43.57238" lon="6.29767">
        <ele>373.61</ele>
        <time>2018-05-23T14:27:01Z</time>
      </trkpt>
      <trkpt lat="43.57237" lon="6.2976">
        <ele>371.69</ele>
        <time>2018-05-23T14:27:16Z</time>
      </trkpt>
      <trkpt lat="43.5724" lon="6.29759">
        <ele>372.65</ele>
        <time>2018-05-23T14:27:44Z</time>
      </trkpt>
      <trkpt lat="43.57239" lon="6.29752">
        <ele>372.65</ele>
        <time>2018-05-23T14:28:12Z</time>
      </trkpt>
      <trkpt lat="43.57237" lon="6.2975">
        <ele>373.13</ele>
        <time>2018-05-23T14:28:40Z</time>
      </trkpt>
      <trkpt lat="43.57235" lon="6.29742">
        <ele>372.65</ele>
        <time>2018-05-23T14:29:09Z</time>
      </trkpt>
      <trkpt lat="43.57236" lon="6.29775">
        <ele>371.69</ele>
        <time>2018-05-23T14:29:25Z</time>
      </trkpt>
      <trkpt lat="43.5723" lon="6.29776">
        <ele>369.76</ele>
        <time>2018-05-23T14:29:43Z</time>
      </trkpt>
      <trkpt lat="43.57231" lon="6.29788">
        <ele>366.4</ele>
        <time>2018-05-23T14:29:58Z</time>
      </trkpt>
      <trkpt lat="43.57234" lon="6.29807">
        <ele>365.92</ele>
        <time>2018-05-23T14:30:16Z</time>
      </trkpt>
      <trkpt lat="43.57233" lon="6.29812">
        <ele>365.44</ele>
        <time>2018-05-23T14:30:39Z</time>
      </trkpt>
      <trkpt lat="43.57226" lon="6.29823">
        <ele>365.44</ele>
        <time>2018-05-23T14:30:58Z</time>
      </trkpt>
      <trkpt lat="43.57217" lon="6.2981">
        <ele>366.88</ele>
        <time>2018-05-23T14:31:12Z</time>
      </trkpt>
      <trkpt lat="43.5721" lon="6.29794">
        <ele>368.32</ele>
        <time>2018-05-23T14:31:28Z</time>
      </trkpt>
      <trkpt lat="43.57208" lon="6.29783">
        <ele>369.28</ele>
        <time>2018-05-23T14:31:45Z</time>
      </trkpt>
      <trkpt lat="43.57205" lon="6.29769">
        <ele>369.76</ele>
        <time>2018-05-23T14:31:58Z</time>
      </trkpt>
      <trkpt lat="43.572" lon="6.2975">
        <ele>370.73</ele>
        <time>2018-05-23T14:32:13Z</time>
      </trkpt>
      <trkpt lat="43.57196" lon="6.29736">
        <ele>369.76</ele>
        <time>2018-05-23T14:32:26Z</time>
      </trkpt>
      <trkpt lat="43.57195" lon="6.29718">
        <ele>369.28</ele>
        <time>2018-05-23T14:32:40Z</time>
      </trkpt>
      <trkpt lat="43.5719" lon="6.29703">
        <ele>369.28</ele>
        <time>2018-05-23T14:32:54Z</time>
      </trkpt>
      <trkpt lat="43.57186" lon="6.29691">
        <ele>367.84</ele>
        <time>2018-05-23T14:33:07Z</time>
      </trkpt>
      <trkpt lat="43.57181" lon="6.29686">
        <ele>367.84</ele>
        <time>2018-05-23T14:33:28Z</time>
      </trkpt>
      <trkpt lat="43.57179" lon="6.29666">
        <ele>366.88</ele>
        <time>2018-05-23T14:33:47Z</time>
      </trkpt>
      <trkpt lat="43.57175" lon="6.29654">
        <ele>366.4</ele>
        <time>2018-05-23T14:34:01Z</time>
      </trkpt>
      <trkpt lat="43.57168" lon="6.29643">
        <ele>365.92</ele>
        <time>2018-05-23T14:34:15Z</time>
      </trkpt>
      <trkpt lat="43.57164" lon="6.29635">
        <ele>364.96</ele>
        <time>2018-05-23T14:34:34Z</time>
      </trkpt>
      <trkpt lat="43.57162" lon="6.29632">
        <ele>364.96</ele>
        <time>2018-05-23T14:34:38Z</time>
      </trkpt>
      <trkpt lat="43.57151" lon="6.29613">
        <ele>364.96</ele>
        <time>2018-05-23T14:34:54Z</time>
      </trkpt>
      <trkpt lat="43.57143" lon="6.29599">
        <ele>364.96</ele>
        <time>2018-05-23T14:35:08Z</time>
      </trkpt>
      <trkpt lat="43.57132" lon="6.29587">
        <ele>364.48</ele>
        <time>2018-05-23T14:35:19Z</time>
      </trkpt>
      <trkpt lat="43.57122" lon="6.29581">
        <ele>364.96</ele>
        <time>2018-05-23T14:35:28Z</time>
      </trkpt>
      <trkpt lat="43.57111" lon="6.2958">
        <ele>364.96</ele>
        <time>2018-05-23T14:35:42Z</time>
      </trkpt>
      <trkpt lat="43.571" lon="6.29582">
        <ele>364</ele>
        <time>2018-05-23T14:35:56Z</time>
      </trkpt>
      <trkpt lat="43.57094" lon="6.29592">
        <ele>364.96</ele>
        <time>2018-05-23T14:36:06Z</time>
      </trkpt>
      <trkpt lat="43.57088" lon="6.29608">
        <ele>364.96</ele>
        <time>2018-05-23T14:36:21Z</time>
      </trkpt>
      <trkpt lat="43.57078" lon="6.29617">
        <ele>364.96</ele>
        <time>2018-05-23T14:36:34Z</time>
      </trkpt>
      <trkpt lat="43.57066" lon="6.29635">
        <ele>364.48</ele>
        <time>2018-05-23T14:36:51Z</time>
      </trkpt>
      <trkpt lat="43.57059" lon="6.29652">
        <ele>364.96</ele>
        <time>2018-05-23T14:37:07Z</time>
      </trkpt>
      <trkpt lat="43.57045" lon="6.29654">
        <ele>364.48</ele>
        <time>2018-05-23T14:37:20Z</time>
      </trkpt>
      <trkpt lat="43.57044" lon="6.29654">
        <ele>364.48</ele>
        <time>2018-05-23T14:37:21Z</time>
      </trkpt>
      <trkpt lat="43.57033" lon="6.29638">
        <ele>365.44</ele>
        <time>2018-05-23T14:37:36Z</time>
      </trkpt>
      <trkpt lat="43.5703" lon="6.29633">
        <ele>364.96</ele>
        <time>2018-05-23T14:37:40Z</time>
      </trkpt>
      <trkpt lat="43.57018" lon="6.29628">
        <ele>366.88</ele>
        <time>2018-05-23T14:37:55Z</time>
      </trkpt>
      <trkpt lat="43.57009" lon="6.29625">
        <ele>368.32</ele>
        <time>2018-05-23T14:38:06Z</time>
      </trkpt>
      <trkpt lat="43.56996" lon="6.29623">
        <ele>367.36</ele>
        <time>2018-05-23T14:38:21Z</time>
      </trkpt>
      <trkpt lat="43.56986" lon="6.29625">
        <ele>364.48</ele>
        <time>2018-05-23T14:38:37Z</time>
      </trkpt>
      <trkpt lat="43.56978" lon="6.2963">
        <ele>364</ele>
        <time>2018-05-23T14:38:51Z</time>
      </trkpt>
      <trkpt lat="43.56966" lon="6.29625">
        <ele>362.55</ele>
        <time>2018-05-23T14:39:06Z</time>
      </trkpt>
      <trkpt lat="43.56956" lon="6.29616">
        <ele>362.55</ele>
        <time>2018-05-23T14:39:20Z</time>
      </trkpt>
      <trkpt lat="43.5695" lon="6.29598">
        <ele>362.55</ele>
        <time>2018-05-23T14:39:33Z</time>
      </trkpt>
      <trkpt lat="43.56948" lon="6.29589">
        <ele>362.07</ele>
        <time>2018-05-23T14:39:39Z</time>
      </trkpt>
      <trkpt lat="43.56942" lon="6.29568">
        <ele>362.07</ele>
        <time>2018-05-23T14:39:55Z</time>
      </trkpt>
      <trkpt lat="43.56937" lon="6.29552">
        <ele>362.07</ele>
        <time>2018-05-23T14:40:09Z</time>
      </trkpt>
      <trkpt lat="43.5693" lon="6.2953">
        <ele>362.07</ele>
        <time>2018-05-23T14:40:26Z</time>
      </trkpt>
      <trkpt lat="43.56923" lon="6.2951">
        <ele>362.55</ele>
        <time>2018-05-23T14:40:42Z</time>
      </trkpt>
      <trkpt lat="43.56917" lon="6.29504">
        <ele>364</ele>
        <time>2018-05-23T14:40:55Z</time>
      </trkpt>
      <trkpt lat="43.56909" lon="6.29491">
        <ele>365.44</ele>
        <time>2018-05-23T14:41:10Z</time>
      </trkpt>
      <trkpt lat="43.56903" lon="6.29481">
        <ele>364.96</ele>
        <time>2018-05-23T14:41:20Z</time>
      </trkpt>
      <trkpt lat="43.56893" lon="6.2947">
        <ele>364</ele>
        <time>2018-05-23T14:41:34Z</time>
      </trkpt>
      <trkpt lat="43.56882" lon="6.29456">
        <ele>363.04</ele>
        <time>2018-05-23T14:41:48Z</time>
      </trkpt>
      <trkpt lat="43.56881" lon="6.29456">
        <ele>363.04</ele>
        <time>2018-05-23T14:41:49Z</time>
      </trkpt>
      <trkpt lat="43.56876" lon="6.29457">
        <ele>362.55</ele>
        <time>2018-05-23T14:41:56Z</time>
      </trkpt>
      <trkpt lat="43.56864" lon="6.29462">
        <ele>361.59</ele>
        <time>2018-05-23T14:42:07Z</time>
      </trkpt>
      <trkpt lat="43.56857" lon="6.29467">
        <ele>361.59</ele>
        <time>2018-05-23T14:42:16Z</time>
      </trkpt>
      <trkpt lat="43.56842" lon="6.29467">
        <ele>360.63</ele>
        <time>2018-05-23T14:42:31Z</time>
      </trkpt>
      <trkpt lat="43.56841" lon="6.29467">
        <ele>360.63</ele>
        <time>2018-05-23T14:42:32Z</time>
      </trkpt>
      <trkpt lat="43.56823" lon="6.29468">
        <ele>360.63</ele>
        <time>2018-05-23T14:42:48Z</time>
      </trkpt>
      <trkpt lat="43.56822" lon="6.29468">
        <ele>360.63</ele>
        <time>2018-05-23T14:42:49Z</time>
      </trkpt>
      <trkpt lat="43.56806" lon="6.29485">
        <ele>361.59</ele>
        <time>2018-05-23T14:43:08Z</time>
      </trkpt>
      <trkpt lat="43.56792" lon="6.29497">
        <ele>361.59</ele>
        <time>2018-05-23T14:43:21Z</time>
      </trkpt>
      <trkpt lat="43.56775" lon="6.29499">
        <ele>361.11</ele>
        <time>2018-05-23T14:43:37Z</time>
      </trkpt>
      <trkpt lat="43.56759" lon="6.29496">
        <ele>359.67</ele>
        <time>2018-05-23T14:43:52Z</time>
      </trkpt>
      <trkpt lat="43.56749" lon="6.29502">
        <ele>358.71</ele>
        <time>2018-05-23T14:44:10Z</time>
      </trkpt>
      <trkpt lat="43.56742" lon="6.29517">
        <ele>356.79</ele>
        <time>2018-05-23T14:44:26Z</time>
      </trkpt>
      <trkpt lat="43.56734" lon="6.2953">
        <ele>355.83</ele>
        <time>2018-05-23T14:44:40Z</time>
      </trkpt>
      <trkpt lat="43.56727" lon="6.29532">
        <ele>354.38</ele>
        <time>2018-05-23T14:44:54Z</time>
      </trkpt>
      <trkpt lat="43.56723" lon="6.29538">
        <ele>353.42</ele>
        <time>2018-05-23T14:45:10Z</time>
      </trkpt>
      <trkpt lat="43.56716" lon="6.29539">
        <ele>351.98</ele>
        <time>2018-05-23T14:45:19Z</time>
      </trkpt>
      <trkpt lat="43.56703" lon="6.2953">
        <ele>348.62</ele>
        <time>2018-05-23T14:45:35Z</time>
      </trkpt>
      <trkpt lat="43.56693" lon="6.29521">
        <ele>347.17</ele>
        <time>2018-05-23T14:45:50Z</time>
      </trkpt>
      <trkpt lat="43.56684" lon="6.29514">
        <ele>344.29</ele>
        <time>2018-05-23T14:46:06Z</time>
      </trkpt>
      <trkpt lat="43.56676" lon="6.29506">
        <ele>342.37</ele>
        <time>2018-05-23T14:46:20Z</time>
      </trkpt>
      <trkpt lat="43.56667" lon="6.295">
        <ele>340.44</ele>
        <time>2018-05-23T14:46:35Z</time>
      </trkpt>
      <trkpt lat="43.56657" lon="6.29494">
        <ele>337.56</ele>
        <time>2018-05-23T14:46:50Z</time>
      </trkpt>
      <trkpt lat="43.5665" lon="6.29482">
        <ele>334.68</ele>
        <time>2018-05-23T14:47:06Z</time>
      </trkpt>
      <trkpt lat="43.56641" lon="6.29476">
        <ele>333.23</ele>
        <time>2018-05-23T14:47:19Z</time>
      </trkpt>
      <trkpt lat="43.56631" lon="6.29479">
        <ele>332.27</ele>
        <time>2018-05-23T14:47:32Z</time>
      </trkpt>
      <trkpt lat="43.5663" lon="6.29479">
        <ele>332.27</ele>
        <time>2018-05-23T14:47:33Z</time>
      </trkpt>
      <trkpt lat="43.5661" lon="6.29472">
        <ele>330.35</ele>
        <time>2018-05-23T14:47:51Z</time>
      </trkpt>
      <trkpt lat="43.56596" lon="6.29463">
        <ele>328.43</ele>
        <time>2018-05-23T14:48:06Z</time>
      </trkpt>
      <trkpt lat="43.56595" lon="6.29461">
        <ele>328.43</ele>
        <time>2018-05-23T14:48:08Z</time>
      </trkpt>
      <trkpt lat="43.56585" lon="6.29444">
        <ele>326.5</ele>
        <time>2018-05-23T14:48:26Z</time>
      </trkpt>
      <trkpt lat="43.56576" lon="6.29432">
        <ele>325.06</ele>
        <time>2018-05-23T14:48:40Z</time>
      </trkpt>
      <trkpt lat="43.56575" lon="6.29415">
        <ele>324.1</ele>
        <time>2018-05-23T14:48:52Z</time>
      </trkpt>
      <trkpt lat="43.56573" lon="6.29412">
        <ele>324.58</ele>
        <time>2018-05-23T14:48:55Z</time>
      </trkpt>
      <trkpt lat="43.56567" lon="6.29395">
        <ele>323.62</ele>
        <time>2018-05-23T14:49:07Z</time>
      </trkpt>
      <trkpt lat="43.56564" lon="6.29379">
        <ele>322.66</ele>
        <time>2018-05-23T14:49:22Z</time>
      </trkpt>
      <trkpt lat="43.5656" lon="6.29372">
        <ele>322.18</ele>
        <time>2018-05-23T14:49:35Z</time>
      </trkpt>
      <trkpt lat="43.56561" lon="6.29372">
        <ele>321.22</ele>
        <time>2018-05-23T14:49:48Z</time>
      </trkpt>
      <trkpt lat="43.56563" lon="6.29363">
        <ele>321.22</ele>
        <time>2018-05-23T14:50:03Z</time>
      </trkpt>
      <trkpt lat="43.56562" lon="6.29363">
        <ele>321.22</ele>
        <time>2018-05-23T14:50:22Z</time>
      </trkpt>
      <trkpt lat="43.56559" lon="6.29361">
        <ele>321.22</ele>
        <time>2018-05-23T14:50:52Z</time>
      </trkpt>
      <trkpt lat="43.56554" lon="6.29363">
        <ele>323.14</ele>
        <time>2018-05-23T14:51:09Z</time>
      </trkpt>
      <trkpt lat="43.56556" lon="6.29362">
        <ele>321.22</ele>
        <time>2018-05-23T14:51:37Z</time>
      </trkpt>
      <trkpt lat="43.5656" lon="6.29362">
        <ele>321.7</ele>
        <time>2018-05-23T14:52:03Z</time>
      </trkpt>
      <trkpt lat="43.56558" lon="6.2936">
        <ele>321.7</ele>
        <time>2018-05-23T14:52:30Z</time>
      </trkpt>
    </trkseg>
  </trk>
</gpx>